Station NMXA2 - Nome, AK Image indicating link to RSS feed of recent meteorological observations for station NMXA2


Conditions at NMXA2 as of
(9:04 am AKDT)
1704 GMT on 05/28/2024:
     

Click on the graph icon in the table below to see a time series plot of the last five days of that observation.

5-day plot - Wind Direction Wind Direction (WDIR): NW ( 310 deg true )
5-day plot - Wind Speed Wind Speed (WSPD): 5 kts
5-day plot - Wind Gust Wind Gust (GST): 8 kts
5-day plot - Air Temperature Air Temperature (ATMP): 30.2 °F
5-day plot - Dew Point Dew Point (DEWP): 24.3 °F
5-day plot - Wind Chill Wind Chill (CHILL): 24.3 °F
5-day plot - Wind Speed at 10 Meters Wind Speed at 10 meters (WSPD10M): 6 kts
5-day plot - Wind Speed at 20 Meters Wind Speed at 20 meters (WSPD20M): 6 kts
5-day plot -  Wind Speed, Wind Gust and Atmospheric Pressure Combined plot of Wind Speed, Gust, and Air Pressure
Previous observations
TIME
(AKDT)
5-day plot - Wind Direction
WDIR
 
5-day plot - Wind Speed
WSPD
kts
5-day plot - Wind Gust
GST
kts
5-day plot - Wave Height
WVHT
ft
5-day plot - Dominant Wave Period
DPD
sec
5-day plot - Average Wave Period
APD
sec
5-day plot - Mean Wave Direction
MWD
 
5-day plot - Atmospheric Pressure
PRES
in
5-day plot - Pressure Tendency
PTDY
in
5-day plot - Air Temperature
ATMP
°F
5-day plot - Water Temperature
WTMP
°F
5-day plot - Dew Point
DEWP
°F
5-day plot - Salinity
SAL
psu
5-day plot - Visibility
VIS
nmi
5-day plot - Tide (above MLLW)
TIDE
ft
2024-05-28 08:54 am NW 4 7------ 30.2- 24.4---
2024-05-28 08:44 amNNW 3 6------ 30.6- 24.6---
2024-05-28 08:34 am NW 2 6------ 30.9- 25.0---
2024-05-28 08:24 amNNE 1 3------ 31.1- 25.0---
2024-05-28 08:14 am NE 1 4------ 30.9- 24.8---
2024-05-28 08:04 am E 2 4------ 30.7- 24.6---
2024-05-28 07:54 am NE 2 5------ 30.6- 24.6---
2024-05-28 07:43 amENE 4 6------ 30.2- 24.8---
2024-05-28 07:34 amENE 4 6------ 30.2- 24.8---
2024-05-28 07:24 am NE 3 5------ 30.2- 24.8---
2024-05-28 07:14 am NE 4 6------ 30.0- 24.6---
2024-05-28 07:04 amNNE 3 5------ 30.2- 24.8---
2024-05-28 06:53 amNNE 4 5------ 30.2- 24.6---
2024-05-28 06:44 amNNE 3 4------ 30.2- 24.4---
2024-05-28 06:33 amNNE 4 5------ 30.0- 24.3---
2024-05-28 06:24 amNNE 5 6------ 29.8- 24.1---
2024-05-28 06:13 am NE 5 7------ 30.0- 24.3---
2024-05-28 06:04 am NE 5 7------ 30.0- 24.3---
2024-05-28 05:54 amENE 6 7------ 30.0- 24.3---
2024-05-28 05:44 am NE 6 8------ 29.8- 24.1---
2024-05-28 05:34 am NE 6 8------ 29.8- 24.3---
2024-05-28 05:24 am NE 5 8------ 29.8- 24.1---
2024-05-28 05:14 amNNE 5 7------ 29.8- 23.9---
2024-05-28 05:04 am NE 5 7------ 29.8- 23.9---
2024-05-28 04:53 amNNE 4 6------ 30.2- 24.3---
2024-05-28 04:44 am N 3 4------ 30.4- 24.3---
2024-05-28 04:33 amSSW 1 5------ 30.6- 24.3---
2024-05-28 04:23 amWSW 2 3------ 30.6- 24.1---
2024-05-28 04:14 am S 1 4------ 30.6- 23.9---
2024-05-28 04:03 amSSE 2 5------ 30.4- 24.1---
2024-05-28 03:53 am E 1 3------ 30.6- 24.1---
2024-05-28 03:44 amNNW 2 5------ 30.2- 23.9---
2024-05-28 03:33 amNNW 5 7------ 30.0- 23.9---
2024-05-28 03:23 amNNW 4 6------ 29.8- 23.9---
2024-05-28 03:14 amNNW 4 6------ 29.7- 23.9---
2024-05-28 03:03 am NW 4 5------ 29.7- 23.9---
2024-05-28 02:53 amWNW 4 5------ 29.8- 24.3---
2024-05-28 02:44 amWNW 5 6------ 29.7- 24.4---
2024-05-28 02:34 amWNW 4 5------ 29.8- 24.3---
2024-05-28 02:24 am NW 3 6------ 29.8- 24.3---
2024-05-28 02:13 amWNW 4 6------ 29.8- 24.4---
2024-05-28 02:04 amWNW 3 4------ 29.8- 24.3---
2024-05-28 01:54 amWNW 4 6------ 29.7- 24.1---
2024-05-28 01:43 amWNW 3 5------ 29.8- 24.1---
2024-05-28 01:34 am W 4 7------ 29.8- 24.1---
2024-05-28 01:23 am NW 3 5------ 30.0- 23.7---
2024-05-28 01:14 amNNW 2 5------ 30.0- 23.7---
2024-05-28 01:04 amWNW 4 6------ 29.8- 23.9---
2024-05-28 12:53 amWSW 6 9------ 29.8- 23.9---
2024-05-28 12:44 amWSW 5 9------ 30.0- 24.1---
2024-05-28 12:33 am SW 4 7------ 30.0- 24.3---
2024-05-28 12:23 amWSW 6 10------ 30.2- 24.6---
2024-05-28 12:14 am S 4 6------ 30.4- 24.4---
2024-05-28 12:03 amSSW 5 9------ 30.2- 24.6---
2024-05-27 11:54 pmWSW 4 8------ 30.4- 24.4---
2024-05-27 11:44 pm SW 7 10------ 30.2- 24.8---
2024-05-27 11:34 pm SW 6 8------ 30.4- 25.0---
2024-05-27 11:23 pmWSW 6 9------ 30.4- 25.2---
2024-05-27 11:13 pm SW 5 8------ 30.6- 24.8---
2024-05-27 11:03 pm SW 5 7------ 30.4- 24.8---
2024-05-27 10:54 pmSSW 6 8------ 30.4- 24.6---
2024-05-27 10:43 pmSSW 6 9------ 30.6- 24.8---
2024-05-27 10:33 pmSSW 6 9------ 30.6- 24.8---
2024-05-27 10:23 pm SW 7 9------ 30.4- 24.6---
2024-05-27 10:13 pm SW 7 10------ 30.6- 24.6---
2024-05-27 10:03 pm SW 8 10------ 30.7- 24.8---
2024-05-27 09:53 pmWSW 8 11------ 30.7- 24.8---
2024-05-27 09:43 pmWSW 8 13------ 30.9- 25.0---
2024-05-27 09:33 pm SW 9 12------ 30.7- 25.2---
2024-05-27 09:24 pmWSW 10 13------ 30.9- 25.2---
2024-05-27 09:13 pmWSW 10 15------ 31.1- 25.5---
2024-05-27 09:04 pmWSW 11 13------ 30.9- 25.3---
2024-05-27 08:54 pmWSW 11 14------ 30.9- 25.5---
2024-05-27 08:44 pmWSW 11 14------ 30.9- 25.7---
2024-05-27 08:34 pmWSW 12 15------ 30.9- 25.9---
2024-05-27 08:24 pm SW 12 16------ 30.7- 25.9---
2024-05-27 08:14 pmWSW 12 14------ 30.7- 26.2---
2024-05-27 08:04 pmWSW 12 14------ 30.7- 26.1---
2024-05-27 07:54 pmWSW 12 14------ 30.9- 26.1---
2024-05-27 07:43 pmWSW 12 16------ 30.7- 26.2---
2024-05-27 07:34 pm SW 11 14------ 30.7- 26.2---
2024-05-27 07:23 pm SW 12 14------ 30.6- 26.4---
2024-05-27 07:13 pmWSW 12 16------ 30.7- 26.6---
2024-05-27 07:04 pmWSW 12 16------ 30.6- 26.6---
2024-05-27 06:53 pmWSW 12 14------ 30.7- 27.0---
2024-05-27 06:44 pmWSW 12 16------ 30.7- 26.6---
2024-05-27 06:34 pmWSW 11 15------ 30.6- 26.8---
2024-05-27 06:23 pmWSW 12 16------ 30.6- 26.8---
2024-05-27 06:14 pmWSW 13 16------ 30.7- 26.6---
2024-05-27 06:04 pmWSW 12 16------ 30.6- 26.8---
2024-05-27 05:54 pmWSW 12 15------ 30.4- 27.0---
2024-05-27 05:44 pmWSW 13 16------ 30.4- 26.8---
2024-05-27 05:34 pmWSW 14 17------ 30.2- 27.0---
2024-05-27 05:24 pmWSW 14 19------ 30.4- 27.1---
2024-05-27 05:14 pmWSW 13 15------ 30.6- 26.6---
2024-05-27 05:04 pm SW 13 16------ 30.6- 26.4---
2024-05-27 04:53 pm SW 12 16------ 30.6- 26.4---
2024-05-27 04:44 pmWSW 12 15------ 30.4- 26.4---
2024-05-27 04:33 pm SW 12 15------ 30.4- 26.2---
2024-05-27 04:23 pmWSW 12 15------ 30.2- 26.2---
2024-05-27 04:13 pmWSW 13 18------ 30.2- 26.1---
2024-05-27 03:53 pm SW 13 16------ 30.4- 26.4---
2024-05-27 03:44 pmWSW 14 18------ 30.0- 25.9---
2024-05-27 03:34 pmWSW 14 17------ 30.2- 26.2---
2024-05-27 03:24 pm SW 14 17------ 29.8- 26.4---
2024-05-27 03:14 pmWSW 14 17------ 30.0- 26.4---
2024-05-27 03:03 pmWSW 14 17------ 30.0- 25.7---
2024-05-27 02:53 pmWSW 13 16------ 30.0- 26.4---
2024-05-27 02:44 pmWSW 15 18------ 29.8- 26.1---
2024-05-27 02:34 pmWSW 14 18------ 30.0- 25.9---
2024-05-27 02:24 pmWSW 14 16------ 30.0- 25.7---
2024-05-27 02:14 pmWSW 14 18------ 30.0- 25.7---
2024-05-27 02:04 pmWSW 13 16------ 30.0- 25.7---
2024-05-27 01:53 pmWSW 15 18------ 30.0- 25.9---
2024-05-27 01:44 pmWSW 15 18------ 30.0- 25.9---
2024-05-27 01:34 pmWSW 14 17------ 29.8- 25.3---
2024-05-27 01:23 pmWSW 14 17------ 29.7- 25.2---
2024-05-27 01:14 pmWSW 15 17------ 29.7- 25.3---
2024-05-27 01:03 pmWSW 15 18------ 29.7- 25.5---
2024-05-27 12:54 pmWSW 15 19------ 29.7- 25.2---
2024-05-27 12:44 pmWSW 15 20------ 29.7- 25.7---
2024-05-27 12:33 pmWSW 16 18------ 29.7- 25.9---
2024-05-27 12:23 pmWSW 15 20------ 29.8- 26.2---
2024-05-27 12:14 pmWSW 15 20------ 29.8- 25.3---
2024-05-27 12:04 pmWSW 16 19------ 29.8- 25.7---
2024-05-27 11:54 amWSW 16 20------ 30.0- 26.1---
2024-05-27 11:44 amWSW 17 20------ 29.8- 26.4---
2024-05-27 11:34 amWSW 18 21------ 29.8- 26.2---
2024-05-27 11:23 amWSW 16 22------ 29.7- 26.8---
2024-05-27 11:14 amWSW 16 19------ 29.7- 26.8---
2024-05-27 11:04 amWSW 15 18------ 29.8- 26.8---
2024-05-27 10:54 amWSW 15 19------ 29.5- 27.0---
2024-05-27 10:43 amWSW 16 19------ 29.5- 27.0---
2024-05-27 10:34 amWSW 16 19------ 29.5- 27.0---
2024-05-27 10:24 amWSW 15 18------ 29.8- 27.3---
2024-05-27 10:13 am W 14 17------ 29.8- 27.0---
2024-05-27 10:03 am W 14 17------ 29.8- 26.8---
2024-05-27 09:54 amWSW 12 16------ 30.0- 26.8---
2024-05-27 09:43 amWSW 12 15------ 30.0- 26.8---
2024-05-27 09:33 am W 8 11------ 30.2- 26.6---
2024-05-27 09:24 amWSW 8 11------ 30.0- 26.4---
2024-05-27 09:14 am W 7 9------ 29.8- 26.2---
2024-05-27 09:04 am W 7 8------ 29.7- 25.9---
2024-05-27 08:54 am W 7 9------ 29.8- 25.9---